sensor_id;sensor_type;location;lat;lon;timestamp;temperature;humidity
19256;DHT22;9762;52.490;13.410;2024-02-16T00:01:01;15.70;99.90
19256;DHT22;9762;52.490;13.410;2024-02-16T00:03:27;15.60;99.90
19256;DHT22;9762;52.490;13.410;2024-02-16T00:05:53;15.60;99.90
19256;DHT22;9762;52.490;13.410;2024-02-16T00:08:19;15.60;99.90
19256;DHT22;9762;52.490;13.410;2024-02-16T00:10:46;15.60;99.90
19256;DHT22;9762;52.490;13.410;2024-02-16T00:13:12;15.60;99.90
19256;DHT22;9762;52.490;13.410;2024-02-16T00:15:38;15.60;99.90
19256;DHT22;9762;52.490;13.410;2024-02-16T00:18:05;15.60;99.90
19256;DHT22;9762;52.490;13.410;2024-02-16T00:20:31;15.50;99.90
19256;DHT22;9762;52.490;13.410;2024-02-16T00:22:57;15.50;99.90
19256;DHT22;9762;52.490;13.410;2024-02-16T00:25:23;15.50;99.90
19256;DHT22;9762;52.490;13.410;2024-02-16T00:27:49;15.50;99.90
19256;DHT22;9762;52.490;13.410;2024-02-16T00:30:16;15.50;99.90
19256;DHT22;9762;52.490;13.410;2024-02-16T00:32:43;15.40;99.90
19256;DHT22;9762;52.490;13.410;2024-02-16T00:35:20;15.40;99.90
19256;DHT22;9762;52.490;13.410;2024-02-16T00:37:45;15.40;99.90
19256;DHT22;9762;52.490;13.410;2024-02-16T00:40:11;15.40;99.90
19256;DHT22;9762;52.490;13.410;2024-02-16T00:42:37;15.40;99.90
19256;DHT22;9762;52.490;13.410;2024-02-16T00:45:04;15.30;99.90
19256;DHT22;9762;52.490;13.410;2024-02-16T00:47:30;15.30;99.90
19256;DHT22;9762;52.490;13.410;2024-02-16T00:49:55;15.30;99.90
19256;DHT22;9762;52.490;13.410;2024-02-16T00:52:22;15.30;99.90
19256;DHT22;9762;52.490;13.410;2024-02-16T00:54:48;15.30;99.90
19256;DHT22;9762;52.490;13.410;2024-02-16T00:57:14;15.30;99.90
19256;DHT22;9762;52.490;13.410;2024-02-16T00:59:40;15.20;99.90
19256;DHT22;9762;52.490;13.410;2024-02-16T01:02:06;15.20;99.90
19256;DHT22;9762;52.490;13.410;2024-02-16T01:04:32;15.20;99.90
19256;DHT22;9762;52.490;13.410;2024-02-16T01:06:59;15.20;99.90
19256;DHT22;9762;52.490;13.410;2024-02-16T01:09:24;15.30;99.90
19256;DHT22;9762;52.490;13.410;2024-02-16T01:11:50;15.30;99.90
19256;DHT22;9762;52.490;13.410;2024-02-16T01:14:16;15.30;99.90
19256;DHT22;9762;52.490;13.410;2024-02-16T01:16:42;15.30;99.90
19256;DHT22;9762;52.490;13.410;2024-02-16T01:19:08;15.20;99.90
19256;DHT22;9762;52.490;13.410;2024-02-16T01:21:35;15.30;99.90
19256;DHT22;9762;52.490;13.410;2024-02-16T01:24:00;15.30;99.80
19256;DHT22;9762;52.490;13.410;2024-02-16T01:26:27;15.20;99.80
19256;DHT22;9762;52.490;13.410;2024-02-16T01:28:53;15.20;99.80
19256;DHT22;9762;52.490;13.410;2024-02-16T01:31:19;15.20;99.80
19256;DHT22;9762;52.490;13.410;2024-02-16T01:33:44;15.10;99.80
19256;DHT22;9762;52.490;13.410;2024-02-16T01:36:10;15.10;99.90
19256;DHT22;9762;52.490;13.410;2024-02-16T01:38:36;15.10;99.90
19256;DHT22;9762;52.490;13.410;2024-02-16T01:41:02;15.10;99.90
19256;DHT22;9762;52.490;13.410;2024-02-16T01:43:27;15.00;99.90
19256;DHT22;9762;52.490;13.410;2024-02-16T01:45:53;15.00;99.90
19256;DHT22;9762;52.490;13.410;2024-02-16T01:48:19;15.00;99.90
19256;DHT22;9762;52.490;13.410;2024-02-16T01:50:45;15.00;99.90
19256;DHT22;9762;52.490;13.410;2024-02-16T01:53:12;15.00;99.90
19256;DHT22;9762;52.490;13.410;2024-02-16T01:55:40;14.90;99.90
19256;DHT22;9762;52.490;13.410;2024-02-16T01:58:05;14.90;99.90
19256;DHT22;9762;52.490;13.410;2024-02-16T02:00:32;14.90;99.90
19256;DHT22;9762;52.490;13.410;2024-02-16T02:02:58;14.90;99.90
19256;DHT22;9762;52.490;13.410;2024-02-16T02:05:24;14.90;99.90
19256;DHT22;9762;52.490;13.410;2024-02-16T02:07:49;14.80;99.90
19256;DHT22;9762;52.490;13.410;2024-02-16T02:10:15;14.80;99.90
19256;DHT22;9762;52.490;13.410;2024-02-16T02:12:42;14.80;99.90
19256;DHT22;9762;52.490;13.410;2024-02-16T02:15:08;14.80;99.90
19256;DHT22;9762;52.490;13.410;2024-02-16T02:17:34;14.80;99.90
19256;DHT22;9762;52.490;13.410;2024-02-16T02:20:00;14.80;99.90
19256;DHT22;9762;52.490;13.410;2024-02-16T02:22:26;14.80;99.90
19256;DHT22;9762;52.490;13.410;2024-02-16T02:24:52;14.70;99.90
19256;DHT22;9762;52.490;13.410;2024-02-16T02:27:21;14.80;99.90
19256;DHT22;9762;52.490;13.410;2024-02-16T02:29:47;14.70;99.90
19256;DHT22;9762;52.490;13.410;2024-02-16T02:32:12;14.80;99.90
19256;DHT22;9762;52.490;13.410;2024-02-16T02:34:39;14.80;99.90
19256;DHT22;9762;52.490;13.410;2024-02-16T02:37:05;14.80;99.90
19256;DHT22;9762;52.490;13.410;2024-02-16T02:39:32;14.70;99.90
19256;DHT22;9762;52.490;13.410;2024-02-16T02:41:57;14.70;99.90
19256;DHT22;9762;52.490;13.410;2024-02-16T02:44:26;14.70;99.90
19256;DHT22;9762;52.490;13.410;2024-02-16T02:46:52;14.70;99.90
19256;DHT22;9762;52.490;13.410;2024-02-16T02:49:18;14.70;99.90
19256;DHT22;9762;52.490;13.410;2024-02-16T02:51:44;14.70;99.90
19256;DHT22;9762;52.490;13.410;2024-02-16T02:54:10;14.70;99.90
19256;DHT22;9762;52.490;13.410;2024-02-16T02:56:36;14.70;99.90
19256;DHT22;9762;52.490;13.410;2024-02-16T02:59:02;14.70;99.90
19256;DHT22;9762;52.490;13.410;2024-02-16T03:01:28;14.70;99.90
19256;DHT22;9762;52.490;13.410;2024-02-16T03:03:53;14.70;99.90
19256;DHT22;9762;52.490;13.410;2024-02-16T03:06:19;14.70;99.90
19256;DHT22;9762;52.490;13.410;2024-02-16T03:08:45;14.70;99.90
19256;DHT22;9762;52.490;13.410;2024-02-16T03:11:11;14.70;99.90
19256;DHT22;9762;52.490;13.410;2024-02-16T03:13:37;14.70;99.90
19256;DHT22;9762;52.490;13.410;2024-02-16T03:16:03;14.70;99.90
19256;DHT22;9762;52.490;13.410;2024-02-16T03:18:35;14.70;99.90
19256;DHT22;9762;52.490;13.410;2024-02-16T03:21:01;14.70;99.90
19256;DHT22;9762;52.490;13.410;2024-02-16T03:23:28;14.70;99.90
19256;DHT22;9762;52.490;13.410;2024-02-16T03:25:53;14.70;99.90
19256;DHT22;9762;52.490;13.410;2024-02-16T03:28:19;14.70;99.90
19256;DHT22;9762;52.490;13.410;2024-02-16T03:30:46;14.70;99.90
19256;DHT22;9762;52.490;13.410;2024-02-16T03:33:12;14.70;99.90
19256;DHT22;9762;52.490;13.410;2024-02-16T03:35:38;14.70;99.90
19256;DHT22;9762;52.490;13.410;2024-02-16T03:38:05;14.70;99.90
19256;DHT22;9762;52.490;13.410;2024-02-16T03:40:31;14.70;99.80
19256;DHT22;9762;52.490;13.410;2024-02-16T03:42:57;14.70;99.90
19256;DHT22;9762;52.490;13.410;2024-02-16T03:45:23;14.70;99.90
19256;DHT22;9762;52.490;13.410;2024-02-16T03:47:50;14.70;99.90
19256;DHT22;9762;52.490;13.410;2024-02-16T03:50:21;14.70;99.90
19256;DHT22;9762;52.490;13.410;2024-02-16T03:52:47;14.70;99.90
19256;DHT22;9762;52.490;13.410;2024-02-16T03:55:13;14.70;99.90
19256;DHT22;9762;52.490;13.410;2024-02-16T03:57:40;14.70;99.90
19256;DHT22;9762;52.490;13.410;2024-02-16T04:00:07;14.70;99.70
19256;DHT22;9762;52.490;13.410;2024-02-16T04:02:33;14.70;99.70
19256;DHT22;9762;52.490;13.410;2024-02-16T04:04:59;14.70;99.60
19256;DHT22;9762;52.490;13.410;2024-02-16T04:07:24;14.70;99.60
19256;DHT22;9762;52.490;13.410;2024-02-16T04:09:50;14.70;99.70
19256;DHT22;9762;52.490;13.410;2024-02-16T04:12:16;14.70;99.80
19256;DHT22;9762;52.490;13.410;2024-02-16T04:14:41;14.70;99.70
19256;DHT22;9762;52.490;13.410;2024-02-16T04:17:09;14.70;99.80
19256;DHT22;9762;52.490;13.410;2024-02-16T04:19:36;14.70;99.70
19256;DHT22;9762;52.490;13.410;2024-02-16T04:22:02;14.60;99.60
19256;DHT22;9762;52.490;13.410;2024-02-16T04:24:29;14.60;99.80
19256;DHT22;9762;52.490;13.410;2024-02-16T04:26:54;14.70;99.80
19256;DHT22;9762;52.490;13.410;2024-02-16T04:29:20;14.70;99.70
19256;DHT22;9762;52.490;13.410;2024-02-16T04:31:46;14.60;99.70
19256;DHT22;9762;52.490;13.410;2024-02-16T04:34:12;14.70;99.80
19256;DHT22;9762;52.490;13.410;2024-02-16T04:36:37;14.70;99.70
19256;DHT22;9762;52.490;13.410;2024-02-16T04:39:03;14.70;99.70
19256;DHT22;9762;52.490;13.410;2024-02-16T04:41:29;14.70;99.60
19256;DHT22;9762;52.490;13.410;2024-02-16T04:43:55;14.70;99.70
19256;DHT22;9762;52.490;13.410;2024-02-16T04:46:21;14.70;99.70
19256;DHT22;9762;52.490;13.410;2024-02-16T04:48:47;14.70;99.70
19256;DHT22;9762;52.490;13.410;2024-02-16T04:51:13;14.70;99.50
19256;DHT22;9762;52.490;13.410;2024-02-16T04:53:39;14.70;99.50
19256;DHT22;9762;52.490;13.410;2024-02-16T04:56:05;14.70;99.60
19256;DHT22;9762;52.490;13.410;2024-02-16T04:58:33;14.70;99.50
19256;DHT22;9762;52.490;13.410;2024-02-16T05:00:59;14.70;99.50
19256;DHT22;9762;52.490;13.410;2024-02-16T05:03:25;14.70;99.70
19256;DHT22;9762;52.490;13.410;2024-02-16T05:05:50;14.70;99.70
19256;DHT22;9762;52.490;13.410;2024-02-16T05:08:17;14.70;99.50
19256;DHT22;9762;52.490;13.410;2024-02-16T05:10:43;14.70;99.40
19256;DHT22;9762;52.490;13.410;2024-02-16T05:13:09;14.60;99.30
19256;DHT22;9762;52.490;13.410;2024-02-16T05:15:36;14.60;99.40
19256;DHT22;9762;52.490;13.410;2024-02-16T05:18:02;14.60;99.50
19256;DHT22;9762;52.490;13.410;2024-02-16T05:20:27;14.50;99.40
19256;DHT22;9762;52.490;13.410;2024-02-16T05:22:53;14.50;99.50
19256;DHT22;9762;52.490;13.410;2024-02-16T05:25:19;14.50;99.50
19256;DHT22;9762;52.490;13.410;2024-02-16T05:27:45;14.40;99.80
19256;DHT22;9762;52.490;13.410;2024-02-16T05:30:12;14.50;99.50
19256;DHT22;9762;52.490;13.410;2024-02-16T05:32:44;14.50;99.50
19256;DHT22;9762;52.490;13.410;2024-02-16T05:35:10;14.40;99.50
19256;DHT22;9762;52.490;13.410;2024-02-16T05:40:15;14.40;99.50
19256;DHT22;9762;52.490;13.410;2024-02-16T05:42:52;14.40;99.40
19256;DHT22;9762;52.490;13.410;2024-02-16T05:45:18;14.40;99.40
19256;DHT22;9762;52.490;13.410;2024-02-16T05:47:45;14.40;99.40
19256;DHT22;9762;52.490;13.410;2024-02-16T05:50:12;14.30;99.50
19256;DHT22;9762;52.490;13.410;2024-02-16T05:52:38;14.30;99.60
19256;DHT22;9762;52.490;13.410;2024-02-16T05:55:06;14.30;99.70
19256;DHT22;9762;52.490;13.410;2024-02-16T05:57:31;14.20;99.80
19256;DHT22;9762;52.490;13.410;2024-02-16T05:59:57;14.20;99.80
19256;DHT22;9762;52.490;13.410;2024-02-16T06:02:23;14.20;99.90
19256;DHT22;9762;52.490;13.410;2024-02-16T06:04:52;14.20;99.90
19256;DHT22;9762;52.490;13.410;2024-02-16T06:07:18;14.20;99.90
19256;DHT22;9762;52.490;13.410;2024-02-16T06:09:43;14.10;99.90
19256;DHT22;9762;52.490;13.410;2024-02-16T06:12:09;14.10;99.90
19256;DHT22;9762;52.490;13.410;2024-02-16T06:14:35;14.10;99.90
19256;DHT22;9762;52.490;13.410;2024-02-16T06:17:02;14.10;99.90
19256;DHT22;9762;52.490;13.410;2024-02-16T06:19:28;14.20;99.90
19256;DHT22;9762;52.490;13.410;2024-02-16T06:21:54;14.00;99.90
19256;DHT22;9762;52.490;13.410;2024-02-16T06:24:21;14.00;99.90
19256;DHT22;9762;52.490;13.410;2024-02-16T06:26:47;14.00;99.90
19256;DHT22;9762;52.490;13.410;2024-02-16T06:29:13;14.00;99.90
19256;DHT22;9762;52.490;13.410;2024-02-16T06:31:39;14.00;99.90
19256;DHT22;9762;52.490;13.410;2024-02-16T06:34:05;14.00;99.90
19256;DHT22;9762;52.490;13.410;2024-02-16T06:36:30;14.00;99.90
19256;DHT22;9762;52.490;13.410;2024-02-16T06:38:56;14.00;99.90
19256;DHT22;9762;52.490;13.410;2024-02-16T06:41:21;14.00;99.90
19256;DHT22;9762;52.490;13.410;2024-02-16T06:43:47;14.60;99.90
19256;DHT22;9762;52.490;13.410;2024-02-16T06:46:12;14.00;99.90
19256;DHT22;9762;52.490;13.410;2024-02-16T06:48:38;14.00;99.90
19256;DHT22;9762;52.490;13.410;2024-02-16T06:51:04;14.00;99.90
19256;DHT22;9762;52.490;13.410;2024-02-16T06:53:29;14.00;99.90
19256;DHT22;9762;52.490;13.410;2024-02-16T06:55:55;14.00;99.90
19256;DHT22;9762;52.490;13.410;2024-02-16T06:58:21;14.00;99.90
19256;DHT22;9762;52.490;13.410;2024-02-16T07:00:46;14.10;99.90
19256;DHT22;9762;52.490;13.410;2024-02-16T07:03:12;14.10;99.90
19256;DHT22;9762;52.490;13.410;2024-02-16T07:05:38;14.20;99.90
19256;DHT22;9762;52.490;13.410;2024-02-16T07:08:05;14.20;99.90
19256;DHT22;9762;52.490;13.410;2024-02-16T07:10:33;14.20;99.90
19256;DHT22;9762;52.490;13.410;2024-02-16T07:12:59;14.30;99.90
19256;DHT22;9762;52.490;13.410;2024-02-16T07:15:25;14.20;99.90
19256;DHT22;9762;52.490;13.410;2024-02-16T07:17:52;14.20;99.90
19256;DHT22;9762;52.490;13.410;2024-02-16T07:20:18;14.20;99.90
19256;DHT22;9762;52.490;13.410;2024-02-16T07:22:44;14.20;99.90
19256;DHT22;9762;52.490;13.410;2024-02-16T07:25:12;14.30;99.80
19256;DHT22;9762;52.490;13.410;2024-02-16T07:27:38;14.40;99.80
19256;DHT22;9762;52.490;13.410;2024-02-16T07:30:04;14.40;99.70
19256;DHT22;9762;52.490;13.410;2024-02-16T07:32:30;14.50;99.60
19256;DHT22;9762;52.490;13.410;2024-02-16T07:34:56;14.60;99.70
19256;DHT22;9762;52.490;13.410;2024-02-16T07:37:21;14.60;99.90
19256;DHT22;9762;52.490;13.410;2024-02-16T07:39:47;14.70;99.90
19256;DHT22;9762;52.490;13.410;2024-02-16T07:42:13;14.70;99.90
19256;DHT22;9762;52.490;13.410;2024-02-16T07:44:39;14.70;99.90
19256;DHT22;9762;52.490;13.410;2024-02-16T07:47:05;14.70;99.80
19256;DHT22;9762;52.490;13.410;2024-02-16T07:49:31;14.70;99.60
19256;DHT22;9762;52.490;13.410;2024-02-16T07:51:56;14.80;99.40
19256;DHT22;9762;52.490;13.410;2024-02-16T07:54:23;14.90;99.40
19256;DHT22;9762;52.490;13.410;2024-02-16T07:56:49;14.90;99.40
19256;DHT22;9762;52.490;13.410;2024-02-16T07:59:14;15.00;99.20
19256;DHT22;9762;52.490;13.410;2024-02-16T08:01:40;15.00;99.00
19256;DHT22;9762;52.490;13.410;2024-02-16T08:04:06;15.00;99.20
19256;DHT22;9762;52.490;13.410;2024-02-16T08:06:32;15.10;99.10
19256;DHT22;9762;52.490;13.410;2024-02-16T08:08:57;15.10;99.00
19256;DHT22;9762;52.490;13.410;2024-02-16T08:11:23;15.20;99.00
19256;DHT22;9762;52.490;13.410;2024-02-16T08:13:49;15.30;99.10
19256;DHT22;9762;52.490;13.410;2024-02-16T08:16:14;15.30;98.90
19256;DHT22;9762;52.490;13.410;2024-02-16T08:18:43;15.30;98.60
19256;DHT22;9762;52.490;13.410;2024-02-16T08:21:08;15.30;98.70
19256;DHT22;9762;52.490;13.410;2024-02-16T08:23:35;15.30;98.60
19256;DHT22;9762;52.490;13.410;2024-02-16T08:26:03;15.40;98.50
19256;DHT22;9762;52.490;13.410;2024-02-16T08:28:28;15.40;98.40
19256;DHT22;9762;52.490;13.410;2024-02-16T08:30:54;15.50;98.30
19256;DHT22;9762;52.490;13.410;2024-02-16T08:33:20;15.50;98.40
19256;DHT22;9762;52.490;13.410;2024-02-16T08:35:45;15.60;98.30
19256;DHT22;9762;52.490;13.410;2024-02-16T08:38:11;15.60;98.20
19256;DHT22;9762;52.490;13.410;2024-02-16T08:40:37;15.70;98.30
19256;DHT22;9762;52.490;13.410;2024-02-16T08:43:04;15.70;98.10
19256;DHT22;9762;52.490;13.410;2024-02-16T08:45:30;15.70;97.90
19256;DHT22;9762;52.490;13.410;2024-02-16T08:47:56;15.80;97.80
19256;DHT22;9762;52.490;13.410;2024-02-16T08:50:23;15.90;97.60
19256;DHT22;9762;52.490;13.410;2024-02-16T08:52:49;15.90;97.60
19256;DHT22;9762;52.490;13.410;2024-02-16T08:55:15;16.00;97.60
19256;DHT22;9762;52.490;13.410;2024-02-16T08:57:41;16.00;97.40
19256;DHT22;9762;52.490;13.410;2024-02-16T09:00:08;16.00;97.50
19256;DHT22;9762;52.490;13.410;2024-02-16T09:02:34;16.00;97.50
19256;DHT22;9762;52.490;13.410;2024-02-16T09:05:00;16.10;97.40
19256;DHT22;9762;52.490;13.410;2024-02-16T09:07:25;16.10;97.40
19256;DHT22;9762;52.490;13.410;2024-02-16T09:09:51;16.10;97.30
19256;DHT22;9762;52.490;13.410;2024-02-16T09:12:17;16.10;97.10
19256;DHT22;9762;52.490;13.410;2024-02-16T09:14:43;16.50;97.10
19256;DHT22;9762;52.490;13.410;2024-02-16T09:17:08;16.30;97.10
19256;DHT22;9762;52.490;13.410;2024-02-16T09:19:34;16.30;97.00
19256;DHT22;9762;52.490;13.410;2024-02-16T09:21:59;16.40;97.10
19256;DHT22;9762;52.490;13.410;2024-02-16T09:24:28;16.40;97.10
19256;DHT22;9762;52.490;13.410;2024-02-16T09:26:56;16.50;96.80
19256;DHT22;9762;52.490;13.410;2024-02-16T09:29:22;16.60;96.90
19256;DHT22;9762;52.490;13.410;2024-02-16T09:31:50;16.70;97.00
19256;DHT22;9762;52.490;13.410;2024-02-16T09:34:16;16.80;97.10
19256;DHT22;9762;52.490;13.410;2024-02-16T09:36:42;16.90;97.80
19256;DHT22;9762;52.490;13.410;2024-02-16T09:39:08;16.90;99.40
19256;DHT22;9762;52.490;13.410;2024-02-16T09:41:35;17.00;99.90
19256;DHT22;9762;52.490;13.410;2024-02-16T09:44:04;17.10;99.90
19256;DHT22;9762;52.490;13.410;2024-02-16T09:46:30;17.20;99.90
19256;DHT22;9762;52.490;13.410;2024-02-16T09:49:03;17.30;99.60
19256;DHT22;9762;52.490;13.410;2024-02-16T09:51:30;17.30;97.80
19256;DHT22;9762;52.490;13.410;2024-02-16T09:53:56;17.30;97.10
19256;DHT22;9762;52.490;13.410;2024-02-16T09:56:22;17.30;97.10
19256;DHT22;9762;52.490;13.410;2024-02-16T09:58:53;17.40;96.00
19256;DHT22;9762;52.490;13.410;2024-02-16T10:01:21;17.40;95.20
19256;DHT22;9762;52.490;13.410;2024-02-16T10:03:47;17.50;94.60
19256;DHT22;9762;52.490;13.410;2024-02-16T10:06:15;17.50;94.40
19256;DHT22;9762;52.490;13.410;2024-02-16T10:08:56;17.50;94.40
19256;DHT22;9762;52.490;13.410;2024-02-16T10:11:27;17.50;94.30
19256;DHT22;9762;52.490;13.410;2024-02-16T10:14:01;17.60;94.30
19256;DHT22;9762;52.490;13.410;2024-02-16T10:16:28;17.70;94.10
19256;DHT22;9762;52.490;13.410;2024-02-16T10:18:55;17.70;93.70
19256;DHT22;9762;52.490;13.410;2024-02-16T10:21:26;17.70;93.60
19256;DHT22;9762;52.490;13.410;2024-02-16T10:24:12;17.70;93.60
19256;DHT22;9762;52.490;13.410;2024-02-16T10:26:39;17.70;93.50
19256;DHT22;9762;52.490;13.410;2024-02-16T10:29:07;17.70;93.20
19256;DHT22;9762;52.490;13.410;2024-02-16T10:31:33;17.70;93.50
19256;DHT22;9762;52.490;13.410;2024-02-16T10:34:04;17.70;93.30
19256;DHT22;9762;52.490;13.410;2024-02-16T10:36:36;17.70;93.00
19256;DHT22;9762;52.490;13.410;2024-02-16T10:39:04;17.70;93.00
19256;DHT22;9762;52.490;13.410;2024-02-16T10:41:33;17.70;93.00
19256;DHT22;9762;52.490;13.410;2024-02-16T10:44:01;17.80;92.90
19256;DHT22;9762;52.490;13.410;2024-02-16T10:46:27;17.80;92.80
19256;DHT22;9762;52.490;13.410;2024-02-16T10:48:53;17.90;92.50
19256;DHT22;9762;52.490;13.410;2024-02-16T10:51:42;17.80;92.60
19256;DHT22;9762;52.490;13.410;2024-02-16T10:54:09;17.90;92.40
19256;DHT22;9762;52.490;13.410;2024-02-16T10:56:37;17.80;92.30
19256;DHT22;9762;52.490;13.410;2024-02-16T10:59:04;17.80;92.40
19256;DHT22;9762;52.490;13.410;2024-02-16T11:01:40;17.90;92.50
19256;DHT22;9762;52.490;13.410;2024-02-16T11:04:11;17.90;92.50
19256;DHT22;9762;52.490;13.410;2024-02-16T11:06:54;17.90;92.30
19256;DHT22;9762;52.490;13.410;2024-02-16T11:09:35;17.90;92.70
19256;DHT22;9762;52.490;13.410;2024-02-16T11:12:05;18.00;92.80
19256;DHT22;9762;52.490;13.410;2024-02-16T11:14:39;18.10;92.60
19256;DHT22;9762;52.490;13.410;2024-02-16T11:17:15;18.10;92.20
19256;DHT22;9762;52.490;13.410;2024-02-16T11:19:42;18.10;92.20
19256;DHT22;9762;52.490;13.410;2024-02-16T11:22:09;18.20;92.10
19256;DHT22;9762;52.490;13.410;2024-02-16T11:24:36;18.20;92.40
19256;DHT22;9762;52.490;13.410;2024-02-16T11:27:05;18.30;92.00
19256;DHT22;9762;52.490;13.410;2024-02-16T11:31:59;18.50;91.70
19256;DHT22;9762;52.490;13.410;2024-02-16T11:34:25;18.70;99.90
19256;DHT22;9762;52.490;13.410;2024-02-16T11:36:55;18.90;97.60
19256;DHT22;9762;52.490;13.410;2024-02-16T11:39:22;19.00;91.20
19256;DHT22;9762;52.490;13.410;2024-02-16T11:41:48;19.20;91.10
19256;DHT22;9762;52.490;13.410;2024-02-16T11:44:14;19.40;90.60
19256;DHT22;9762;52.490;13.410;2024-02-16T11:46:43;19.60;90.70
19256;DHT22;9762;52.490;13.410;2024-02-16T11:49:09;19.80;90.10
19256;DHT22;9762;52.490;13.410;2024-02-16T11:51:36;20.00;90.10
19256;DHT22;9762;52.490;13.410;2024-02-16T11:54:02;20.20;90.00
19256;DHT22;9762;52.490;13.410;2024-02-16T11:56:27;20.40;87.60
19256;DHT22;9762;52.490;13.410;2024-02-16T11:58:55;20.60;87.40
19256;DHT22;9762;52.490;13.410;2024-02-16T12:01:21;20.80;86.90
19256;DHT22;9762;52.490;13.410;2024-02-16T12:03:47;20.90;85.50
19256;DHT22;9762;52.490;13.410;2024-02-16T12:06:20;20.90;84.30
19256;DHT22;9762;52.490;13.410;2024-02-16T12:08:46;21.00;83.60
19256;DHT22;9762;52.490;13.410;2024-02-16T12:11:12;21.00;84.40
19256;DHT22;9762;52.490;13.410;2024-02-16T12:13:39;21.00;84.10
19256;DHT22;9762;52.490;13.410;2024-02-16T12:16:05;21.00;83.50
19256;DHT22;9762;52.490;13.410;2024-02-16T12:18:32;21.00;82.80
19256;DHT22;9762;52.490;13.410;2024-02-16T12:23:27;20.80;82.70
19256;DHT22;9762;52.490;13.410;2024-02-16T12:25:53;20.70;83.30
19256;DHT22;9762;52.490;13.410;2024-02-16T12:28:30;20.70;84.10
19256;DHT22;9762;52.490;13.410;2024-02-16T12:30:59;20.70;84.20
19256;DHT22;9762;52.490;13.410;2024-02-16T12:33:25;20.80;83.70
19256;DHT22;9762;52.490;13.410;2024-02-16T12:35:51;20.80;84.10
19256;DHT22;9762;52.490;13.410;2024-02-16T12:38:17;20.80;83.50
19256;DHT22;9762;52.490;13.410;2024-02-16T12:40:45;20.90;84.10
19256;DHT22;9762;52.490;13.410;2024-02-16T12:43:10;20.80;82.70
19256;DHT22;9762;52.490;13.410;2024-02-16T12:45:37;20.90;82.90
19256;DHT22;9762;52.490;13.410;2024-02-16T12:48:03;20.80;82.90
19256;DHT22;9762;52.490;13.410;2024-02-16T12:50:30;20.80;83.80
19256;DHT22;9762;52.490;13.410;2024-02-16T12:52:56;20.80;83.70
19256;DHT22;9762;52.490;13.410;2024-02-16T12:55:22;20.90;83.00
19256;DHT22;9762;52.490;13.410;2024-02-16T12:57:49;21.00;83.60
19256;DHT22;9762;52.490;13.410;2024-02-16T13:00:15;20.90;83.30
19256;DHT22;9762;52.490;13.410;2024-02-16T13:02:41;21.00;83.70
19256;DHT22;9762;52.490;13.410;2024-02-16T13:05:06;21.10;83.70
19256;DHT22;9762;52.490;13.410;2024-02-16T13:07:33;21.10;82.70
19256;DHT22;9762;52.490;13.410;2024-02-16T13:09:59;21.10;82.70
19256;DHT22;9762;52.490;13.410;2024-02-16T13:12:25;21.10;83.20
19256;DHT22;9762;52.490;13.410;2024-02-16T13:14:50;21.20;83.10
19256;DHT22;9762;52.490;13.410;2024-02-16T13:17:16;21.20;82.60
19256;DHT22;9762;52.490;13.410;2024-02-16T13:19:42;21.10;82.30
19256;DHT22;9762;52.490;13.410;2024-02-16T13:22:08;21.10;82.50
19256;DHT22;9762;52.490;13.410;2024-02-16T13:24:34;21.00;82.90
19256;DHT22;9762;52.490;13.410;2024-02-16T13:27:00;21.00;82.90
19256;DHT22;9762;52.490;13.410;2024-02-16T13:29:26;21.00;83.10
19256;DHT22;9762;52.490;13.410;2024-02-16T13:31:52;21.00;82.90
19256;DHT22;9762;52.490;13.410;2024-02-16T13:34:18;20.90;82.50
19256;DHT22;9762;52.490;13.410;2024-02-16T13:36:43;20.80;83.00
19256;DHT22;9762;52.490;13.410;2024-02-16T13:39:09;20.80;83.30
19256;DHT22;9762;52.490;13.410;2024-02-16T13:41:35;20.80;83.10
19256;DHT22;9762;52.490;13.410;2024-02-16T13:44:01;20.70;82.80
19256;DHT22;9762;52.490;13.410;2024-02-16T13:46:26;20.70;83.10
19256;DHT22;9762;52.490;13.410;2024-02-16T13:48:52;20.60;83.70
19256;DHT22;9762;52.490;13.410;2024-02-16T13:51:18;20.60;83.50
19256;DHT22;9762;52.490;13.410;2024-02-16T13:53:44;20.50;83.30
19256;DHT22;9762;52.490;13.410;2024-02-16T13:56:10;20.50;84.20
19256;DHT22;9762;52.490;13.410;2024-02-16T13:58:36;20.50;83.70
19256;DHT22;9762;52.490;13.410;2024-02-16T14:01:03;20.40;83.90
19256;DHT22;9762;52.490;13.410;2024-02-16T14:03:29;20.40;84.20
19256;DHT22;9762;52.490;13.410;2024-02-16T14:05:56;20.30;84.00
19256;DHT22;9762;52.490;13.410;2024-02-16T14:08:22;20.20;84.60
19256;DHT22;9762;52.490;13.410;2024-02-16T14:10:48;20.10;85.10
19256;DHT22;9762;52.490;13.410;2024-02-16T14:13:13;20.00;85.00
19256;DHT22;9762;52.490;13.410;2024-02-16T14:15:39;20.00;85.30
19256;DHT22;9762;52.490;13.410;2024-02-16T14:18:05;20.00;85.40
19256;DHT22;9762;52.490;13.410;2024-02-16T14:20:32;20.00;85.00
19256;DHT22;9762;52.490;13.410;2024-02-16T14:22:58;20.00;85.30
19256;DHT22;9762;52.490;13.410;2024-02-16T14:25:23;19.90;85.20
19256;DHT22;9762;52.490;13.410;2024-02-16T14:27:51;19.90;85.30
19256;DHT22;9762;52.490;13.410;2024-02-16T14:30:17;19.90;85.40
19256;DHT22;9762;52.490;13.410;2024-02-16T14:32:42;19.80;85.60
19256;DHT22;9762;52.490;13.410;2024-02-16T14:35:08;19.80;85.70
19256;DHT22;9762;52.490;13.410;2024-02-16T14:37:35;19.80;85.50
19256;DHT22;9762;52.490;13.410;2024-02-16T14:40:01;19.80;86.00
19256;DHT22;9762;52.490;13.410;2024-02-16T14:42:27;19.70;85.90
19256;DHT22;9762;52.490;13.410;2024-02-16T14:44:54;19.60;86.80
19256;DHT22;9762;52.490;13.410;2024-02-16T14:47:19;19.60;86.70
19256;DHT22;9762;52.490;13.410;2024-02-16T14:49:45;19.60;86.50
19256;DHT22;9762;52.490;13.410;2024-02-16T14:52:10;19.70;86.60
19256;DHT22;9762;52.490;13.410;2024-02-16T14:54:36;19.70;86.30
19256;DHT22;9762;52.490;13.410;2024-02-16T14:57:02;19.70;86.50
19256;DHT22;9762;52.490;13.410;2024-02-16T14:59:28;19.70;86.20
19256;DHT22;9762;52.490;13.410;2024-02-16T15:01:55;19.70;86.50
19256;DHT22;9762;52.490;13.410;2024-02-16T15:04:22;19.70;86.50
19256;DHT22;9762;52.490;13.410;2024-02-16T15:06:47;19.80;86.30
19256;DHT22;9762;52.490;13.410;2024-02-16T15:09:13;19.70;86.20
19256;DHT22;9762;52.490;13.410;2024-02-16T15:11:39;19.70;85.90
19256;DHT22;9762;52.490;13.410;2024-02-16T15:14:04;19.60;86.00
19256;DHT22;9762;52.490;13.410;2024-02-16T15:16:30;19.60;86.30
19256;DHT22;9762;52.490;13.410;2024-02-16T15:18:56;19.40;86.30
19256;DHT22;9762;52.490;13.410;2024-02-16T15:21:22;19.40;86.70
19256;DHT22;9762;52.490;13.410;2024-02-16T15:23:47;19.30;87.20
19256;DHT22;9762;52.490;13.410;2024-02-16T15:26:13;19.30;87.10
19256;DHT22;9762;52.490;13.410;2024-02-16T15:28:39;19.30;87.20
19256;DHT22;9762;52.490;13.410;2024-02-16T15:31:05;19.20;87.60
19256;DHT22;9762;52.490;13.410;2024-02-16T15:33:31;19.20;87.30